Time;durP1;ratioP1;P1;durP2;ratioP2;P2;SDS_P1;SDS_P2;PMS_P1;PMS_P2;Temp;Humidity;BMP_temperature;BMP_pressure;BME280_temperature;BME280_humidity;BME280_pressure;Samples;Min_cycle;Max_cycle;Signal;HPM_P1;HPM_P2
2021/08/19 00:01:52;;;;;;;33.13;30.37;;;;;;;;;;5017298;28;20419;-94
2021/08/19 00:04:20;;;;;;;37.53;34.20;;;;;;;;;;5016583;28;20417;-94
2021/08/19 00:06:47;;;;;;;37.40;34.00;;;;;;;;;;4999460;28;20493;-96
2021/08/19 00:09:15;;;;;;;36.00;32.73;;;;;;;;;;5017172;28;20423;-95
2021/08/19 00:11:42;;;;;;;41.13;37.37;;;;;;;;;;4999185;28;20750;-94
2021/08/19 00:14:10;;;;;;;40.33;36.57;;;;;;;;;;5016391;28;20437;-94
2021/08/19 00:16:39;;;;;;;39.53;36.03;;;;;;;;;;5016243;28;20962;-95
2021/08/19 00:19:06;;;;;;;38.77;35.20;;;;;;;;;;5016723;28;20448;-95
2021/08/19 00:21:34;;;;;;;39.37;35.73;;;;;;;;;;5015728;28;20427;-94
2021/08/19 00:24:01;;;;;;;38.30;34.73;;;;;;;;;;5016050;28;20468;-94
2021/08/19 00:26:28;;;;;;;38.57;35.17;;;;;;;;;;5016579;28;20486;-95
2021/08/19 00:28:56;;;;;;;35.60;32.40;;;;;;;;;;4998970;28;20449;-95
2021/08/19 00:31:24;;;;;;;31.80;29.27;;;;;;;;;;5016961;28;20432;-96
2021/08/19 00:33:53;;;;;;;32.60;29.80;;;;;;;;;;5017392;28;20464;-95
2021/08/19 00:36:21;;;;;;;31.00;28.60;;;;;;;;;;5017873;28;20408;-95
2021/08/19 00:38:48;;;;;;;30.27;27.87;;;;;;;;;;5016603;28;20463;-96
2021/08/19 00:41:16;;;;;;;28.73;26.73;;;;;;;;;;5020316;28;20461;-95
2021/08/19 00:43:44;;;;;;;26.87;24.97;;;;;;;;;;5019934;28;20412;-96
2021/08/19 00:46:24;;;;;;;29.20;26.90;;;;;;;;;;5018294;28;20824;-96
2021/08/19 00:48:54;;;;;;;25.70;23.90;;;;;;;;;;5017137;28;20419;-95
2021/08/19 00:51:21;;;;;;;26.93;25.20;;;;;;;;;;5000661;28;20424;-96
2021/08/19 00:53:48;;;;;;;26.80;24.90;;;;;;;;;;5017855;28;20415;-95
2021/08/19 00:56:16;;;;;;;25.47;23.70;;;;;;;;;;5016094;28;20438;-96
2021/08/19 00:58:44;;;;;;;26.43;24.43;;;;;;;;;;5016883;28;20457;-96
2021/08/19 01:01:12;;;;;;;25.23;23.63;;;;;;;;;;5015752;28;20828;-96
2021/08/19 01:03:40;;;;;;;25.40;23.50;;;;;;;;;;4999602;28;20435;-96
2021/08/19 01:06:09;;;;;;;27.00;25.23;;;;;;;;;;5015783;28;20828;-95
2021/08/19 01:08:37;;;;;;;26.23;24.53;;;;;;;;;;5016075;28;20416;-96
2021/08/19 01:11:05;;;;;;;26.07;24.27;;;;;;;;;;5017698;28;20461;-95
2021/08/19 01:13:34;;;;;;;25.87;24.03;;;;;;;;;;4999908;28;20431;-96
2021/08/19 01:16:02;;;;;;;27.13;25.33;;;;;;;;;;5018524;28;20420;-96
2021/08/19 01:18:38;;;;;;;26.57;24.90;;;;;;;;;;5019406;28;20446;-95
2021/08/19 01:21:05;;;;;;;26.37;24.57;;;;;;;;;;5021589;28;20802;-95
2021/08/19 01:23:34;;;;;;;27.90;26.00;;;;;;;;;;5022134;28;20438;-95
2021/08/19 01:26:04;;;;;;;28.70;26.80;;;;;;;;;;5024235;28;20451;-96
2021/08/19 01:28:34;;;;;;;29.27;27.30;;;;;;;;;;5020325;28;20931;-96
2021/08/19 01:31:01;;;;;;;28.43;26.43;;;;;;;;;;5018007;28;20419;-95
2021/08/19 01:33:30;;;;;;;30.97;28.67;;;;;;;;;;5001347;28;20423;-95
2021/08/19 01:35:57;;;;;;;30.37;28.10;;;;;;;;;;5017533;28;20420;-96
2021/08/19 01:38:32;;;;;;;31.10;28.90;;;;;;;;;;5019532;28;20442;-96
2021/08/19 01:41:00;;;;;;;33.77;31.00;;;;;;;;;;5020513;28;20437;-96
2021/08/19 01:43:28;;;;;;;34.60;32.10;;;;;;;;;;5020545;28;20995;-96
2021/08/19 01:45:58;;;;;;;36.20;33.40;;;;;;;;;;5005504;28;20416;-95
2021/08/19 01:48:25;;;;;;;36.97;34.00;;;;;;;;;;5021120;28;20502;-95
2021/08/19 01:50:53;;;;;;;38.63;35.60;;;;;;;;;;5025170;28;20439;-95
2021/08/19 01:53:20;;;;;;;41.40;38.23;;;;;;;;;;5027066;28;20412;-95
2021/08/19 01:55:48;;;;;;;41.37;38.10;;;;;;;;;;5007654;28;20445;-95
2021/08/19 01:58:17;;;;;;;43.83;40.20;;;;;;;;;;5025537;28;20775;-96
2021/08/19 02:00:44;;;;;;;44.67;41.17;;;;;;;;;;5025345;28;20465;-96
2021/08/19 02:03:13;;;;;;;45.00;41.50;;;;;;;;;;5024364;28;20911;-95
2021/08/19 02:05:41;;;;;;;47.43;43.33;;;;;;;;;;5025026;28;20407;-96
2021/08/19 02:08:09;;;;;;;53.53;49.07;;;;;;;;;;5007674;28;20845;-96
2021/08/19 02:10:38;;;;;;;50.40;46.30;;;;;;;;;;5025719;28;20448;-96
2021/08/19 02:13:06;;;;;;;54.07;49.27;;;;;;;;;;5024866;28;20441;-96
2021/08/19 02:15:34;;;;;;;54.20;49.80;;;;;;;;;;5024911;28;20416;-96
2021/08/19 02:18:01;;;;;;;55.10;50.60;;;;;;;;;;5006511;28;20431;-96
2021/08/19 02:20:30;;;;;;;53.93;49.50;;;;;;;;;;5024345;28;20457;-95
2021/08/19 02:22:59;;;;;;;53.47;49.10;;;;;;;;;;5023665;28;20413;-95
2021/08/19 02:25:30;;;;;;;53.87;49.17;;;;;;;;;;5023930;28;20960;-96
2021/08/19 02:27:58;;;;;;;53.40;48.83;;;;;;;;;;5023167;28;20493;-95
2021/08/19 02:30:25;;;;;;;54.20;49.67;;;;;;;;;;5024161;28;20434;-95
2021/08/19 02:32:55;;;;;;;54.17;49.30;;;;;;;;;;5024926;28;20422;-96
2021/08/19 02:35:23;;;;;;;55.60;50.10;;;;;;;;;;5024836;28;20799;-95
2021/08/19 02:37:52;;;;;;;56.30;51.40;;;;;;;;;;5023341;28;20454;-95
2021/08/19 02:40:20;;;;;;;54.27;49.90;;;;;;;;;;5022700;28;20412;-95
2021/08/19 02:42:47;;;;;;;54.50;49.73;;;;;;;;;;5023054;28;20457;-96
2021/08/19 02:45:15;;;;;;;56.13;51.10;;;;;;;;;;5022987;28;20884;-96
2021/08/19 02:47:42;;;;;;;53.77;49.03;;;;;;;;;;5022546;28;20489;-96
2021/08/19 02:50:11;;;;;;;56.40;51.40;;;;;;;;;;5021392;28;20443;-96
2021/08/19 02:52:38;;;;;;;55.57;50.37;;;;;;;;;;5005740;28;20458;-96
2021/08/19 02:55:09;;;;;;;54.90;50.30;;;;;;;;;;5005839;28;20421;-95
2021/08/19 02:57:36;;;;;;;55.37;50.30;;;;;;;;;;5023981;28;20431;-95
2021/08/19 03:00:04;;;;;;;52.80;48.17;;;;;;;;;;5022710;28;20415;-95
2021/08/19 03:02:31;;;;;;;52.53;47.83;;;;;;;;;;5021081;28;20411;-96
2021/08/19 03:04:59;;;;;;;53.67;48.67;;;;;;;;;;5023195;28;20427;-95
2021/08/19 03:07:26;;;;;;;53.67;48.47;;;;;;;;;;5005978;28;20493;-96
2021/08/19 03:09:54;;;;;;;54.60;49.93;;;;;;;;;;5022503;28;20433;-96
2021/08/19 03:12:23;;;;;;;53.10;48.30;;;;;;;;;;5021752;28;20405;-95
2021/08/19 03:14:50;;;;;;;53.40;48.23;;;;;;;;;;5025572;28;20402;-96
2021/08/19 03:17:19;;;;;;;49.70;44.97;;;;;;;;;;5024383;28;20439;-96
2021/08/19 03:19:46;;;;;;;46.67;42.07;;;;;;;;;;5023248;28;20449;-96
2021/08/19 03:22:15;;;;;;;49.60;44.80;;;;;;;;;;5022277;28;20805;-96
2021/08/19 03:24:42;;;;;;;48.90;44.23;;;;;;;;;;5022061;28;20416;-96
2021/08/19 03:27:11;;;;;;;49.37;44.13;;;;;;;;;;5022496;28;20475;-96
2021/08/19 03:29:39;;;;;;;47.23;43.03;;;;;;;;;;5021173;28;20505;-96
2021/08/19 03:32:08;;;;;;;47.00;42.70;;;;;;;;;;5008590;28;20420;-96
2021/08/19 03:34:35;;;;;;;48.07;43.77;;;;;;;;;;5023503;28;20428;-96
2021/08/19 03:37:02;;;;;;;48.10;43.50;;;;;;;;;;5023093;28;20411;-95
2021/08/19 03:39:30;;;;;;;48.83;44.10;;;;;;;;;;5005515;28;20421;-96
2021/08/19 03:41:57;;;;;;;47.80;43.37;;;;;;;;;;5005419;28;20454;-96
2021/08/19 03:44:25;;;;;;;46.20;41.80;;;;;;;;;;5024895;28;20422;-96
2021/08/19 03:46:54;;;;;;;46.33;42.07;;;;;;;;;;5022049;28;20486;-96
2021/08/19 03:49:21;;;;;;;44.77;40.40;;;;;;;;;;5024275;28;20437;-96
2021/08/19 03:51:49;;;;;;;45.57;41.37;;;;;;;;;;5021662;28;20420;-96
2021/08/19 03:54:17;;;;;;;43.87;39.90;;;;;;;;;;5021510;28;20436;-95
2021/08/19 03:56:44;;;;;;;44.20;40.30;;;;;;;;;;5007965;28;20416;-96
2021/08/19 03:59:13;;;;;;;44.10;40.03;;;;;;;;;;5008524;28;20463;-96
2021/08/19 04:01:41;;;;;;;44.90;40.60;;;;;;;;;;5024568;28;20415;-96
2021/08/19 04:04:10;;;;;;;46.27;41.73;;;;;;;;;;5021495;28;20405;-95
2021/08/19 04:06:38;;;;;;;43.87;39.87;;;;;;;;;;5025531;28;20479;-96
2021/08/19 04:09:05;;;;;;;43.73;39.90;;;;;;;;;;5004704;28;20429;-96
2021/08/19 04:11:33;;;;;;;43.80;39.90;;;;;;;;;;5027017;28;20939;-96
2021/08/19 04:14:00;;;;;;;44.60;40.60;;;;;;;;;;5024051;28;20434;-94
2021/08/19 04:16:28;;;;;;;41.57;37.97;;;;;;;;;;5024791;28;20447;-96
2021/08/19 04:18:55;;;;;;;46.00;41.70;;;;;;;;;;5025224;28;20446;-95
2021/08/19 04:21:24;;;;;;;45.73;41.43;;;;;;;;;;5025565;28;20438;-96
2021/08/19 04:23:52;;;;;;;44.40;40.10;;;;;;;;;;5024884;28;20405;-96
2021/08/19 04:26:19;;;;;;;46.50;42.17;;;;;;;;;;5024892;28;20417;-96
2021/08/19 04:28:46;;;;;;;45.37;41.00;;;;;;;;;;5027197;28;20483;-96
2021/08/19 04:31:14;;;;;;;44.60;40.57;;;;;;;;;;5044986;28;20418;-96
2021/08/19 04:33:41;;;;;;;43.53;39.73;;;;;;;;;;5042632;28;20941;-96
2021/08/19 04:36:09;;;;;;;46.20;42.17;;;;;;;;;;5044930;28;20439;-96
2021/08/19 04:38:38;;;;;;;42.67;39.07;;;;;;;;;;5044285;28;20449;-96
2021/08/19 04:41:06;;;;;;;44.00;39.87;;;;;;;;;;5042279;28;20414;-88
2021/08/19 04:43:33;;;;;;;43.23;39.33;;;;;;;;;;5016741;28;20444;-88
2021/08/19 04:46:01;;;;;;;42.53;38.87;;;;;;;;;;5034862;28;20447;-88
2021/08/19 04:48:28;;;;;;;42.77;39.17;;;;;;;;;;5035641;28;20489;-95
2021/08/19 04:50:55;;;;;;;41.33;37.87;;;;;;;;;;5037079;28;20462;-96
2021/08/19 04:53:23;;;;;;;41.73;38.10;;;;;;;;;;5036650;28;20914;-93
2021/08/19 04:55:52;;;;;;;42.17;38.57;;;;;;;;;;5035507;28;20439;-88
2021/08/19 04:58:19;;;;;;;38.43;35.10;;;;;;;;;;5034309;28;20461;-88
2021/08/19 05:00:47;;;;;;;39.30;35.93;;;;;;;;;;5017800;28;20419;-95
2021/08/19 05:03:14;;;;;;;40.20;36.80;;;;;;;;;;5042446;28;20457;-96
2021/08/19 05:05:43;;;;;;;38.13;34.90;;;;;;;;;;5044964;28;20412;-96
2021/08/19 05:08:11;;;;;;;39.27;35.97;;;;;;;;;;5035882;28;20542;-88
2021/08/19 05:10:38;;;;;;;37.87;34.53;;;;;;;;;;5034290;28;20434;-87
2021/08/19 05:13:07;;;;;;;37.23;34.23;;;;;;;;;;5034122;28;20440;-88
2021/08/19 05:15:35;;;;;;;38.77;35.67;;;;;;;;;;5016271;28;20420;-86
2021/08/19 05:18:02;;;;;;;39.20;36.00;;;;;;;;;;5032569;28;20434;-87
2021/08/19 05:20:30;;;;;;;38.27;34.97;;;;;;;;;;5017299;28;20511;-87
2021/08/19 05:22:57;;;;;;;38.20;34.80;;;;;;;;;;5034511;28;20479;-87
2021/08/19 05:25:25;;;;;;;41.17;37.67;;;;;;;;;;5035658;28;20448;-87
2021/08/19 05:27:52;;;;;;;36.03;33.23;;;;;;;;;;5038421;28;20457;-88
2021/08/19 05:30:21;;;;;;;38.27;35.03;;;;;;;;;;5038152;28;20835;-88
2021/08/19 05:32:48;;;;;;;35.50;32.87;;;;;;;;;;5038290;28;20790;-88
2021/08/19 05:35:16;;;;;;;35.57;32.67;;;;;;;;;;5037962;28;20914;-87
2021/08/19 05:37:43;;;;;;;35.53;32.27;;;;;;;;;;5037765;28;20418;-88
2021/08/19 05:40:11;;;;;;;37.90;34.60;;;;;;;;;;5037536;28;20411;-87
2021/08/19 05:42:38;;;;;;;34.27;31.37;;;;;;;;;;5037702;28;20792;-88
2021/08/19 05:45:07;;;;;;;37.60;34.63;;;;;;;;;;5020260;28;20896;-87
2021/08/19 05:47:35;;;;;;;36.23;33.23;;;;;;;;;;5037554;28;20801;-88
2021/08/19 05:50:09;;;;;;;35.57;32.43;;;;;;;;;;5037895;28;20425;-87
2021/08/19 05:52:37;;;;;;;35.80;33.00;;;;;;;;;;5021917;28;20444;-87
2021/08/19 05:55:05;;;;;;;38.17;35.07;;;;;;;;;;5038246;28;20465;-87
2021/08/19 05:57:32;;;;;;;37.63;34.67;;;;;;;;;;5038495;28;20807;-87
2021/08/19 06:00:00;;;;;;;38.77;35.27;;;;;;;;;;5037518;28;20763;-87
2021/08/19 06:02:27;;;;;;;37.77;34.67;;;;;;;;;;5037443;28;20417;-87
2021/08/19 06:04:56;;;;;;;40.03;36.57;;;;;;;;;;5037137;28;20436;-87
2021/08/19 06:07:23;;;;;;;36.90;33.87;;;;;;;;;;5030767;28;20488;-88
2021/08/19 06:09:51;;;;;;;38.07;34.67;;;;;;;;;;5026271;28;20439;-86
2021/08/19 06:12:18;;;;;;;37.60;34.70;;;;;;;;;;5017441;28;20458;-88
2021/08/19 06:14:46;;;;;;;39.73;36.43;;;;;;;;;;5017618;28;20456;-87
2021/08/19 06:17:13;;;;;;;39.03;35.83;;;;;;;;;;4999741;28;20794;-88
2021/08/19 06:19:40;;;;;;;37.97;35.03;;;;;;;;;;5000262;28;20425;-87
2021/08/19 06:22:09;;;;;;;42.33;38.27;;;;;;;;;;5017641;28;20438;-87
2021/08/19 06:24:37;;;;;;;42.77;38.83;;;;;;;;;;5017520;28;20440;-88
2021/08/19 06:27:04;;;;;;;40.23;36.73;;;;;;;;;;5017346;28;20438;-87
2021/08/19 06:29:32;;;;;;;40.13;36.67;;;;;;;;;;5016883;28;20459;-87
2021/08/19 06:31:59;;;;;;;40.57;36.90;;;;;;;;;;5017233;28;20460;-88
2021/08/19 06:34:26;;;;;;;39.40;36.17;;;;;;;;;;5016872;28;20433;-88
2021/08/19 06:36:54;;;;;;;44.43;40.90;;;;;;;;;;5016506;28;20860;-87
2021/08/19 06:39:23;;;;;;;43.27;39.50;;;;;;;;;;4999702;28;20483;-87
2021/08/19 06:41:50;;;;;;;42.77;38.97;;;;;;;;;;5016894;28;20481;-87
2021/08/19 06:44:18;;;;;;;43.07;39.00;;;;;;;;;;5016475;28;20438;-86
2021/08/19 06:46:45;;;;;;;44.07;39.97;;;;;;;;;;5017242;28;20422;-95
2021/08/19 06:49:13;;;;;;;45.87;41.50;;;;;;;;;;5020803;28;20483;-96
2021/08/19 06:51:40;;;;;;;44.77;40.53;;;;;;;;;;5005885;28;20431;-96
2021/08/19 06:54:08;;;;;;;46.03;41.73;;;;;;;;;;5001483;28;20441;-88
2021/08/19 06:56:37;;;;;;;46.83;42.60;;;;;;;;;;5016769;28;20434;-88
2021/08/19 06:59:04;;;;;;;44.30;40.30;;;;;;;;;;4999648;28;20448;-88
2021/08/19 07:01:32;;;;;;;44.73;40.83;;;;;;;;;;5016118;28;20461;-88
2021/08/19 07:03:59;;;;;;;45.13;41.03;;;;;;;;;;5016574;28;20413;-87
2021/08/19 07:06:26;;;;;;;45.07;41.27;;;;;;;;;;5016286;28;20461;-87
2021/08/19 07:08:54;;;;;;;43.37;39.67;;;;;;;;;;5016362;28;20485;-87
2021/08/19 07:11:21;;;;;;;43.57;39.87;;;;;;;;;;4983740;28;20450;-88
2021/08/19 07:13:50;;;;;;;42.07;38.57;;;;;;;;;;5016251;28;20465;-88
2021/08/19 07:16:18;;;;;;;44.23;40.60;;;;;;;;;;5016326;28;20468;-87
2021/08/19 07:18:45;;;;;;;41.83;37.73;;;;;;;;;;5016412;28;20461;-87
2021/08/19 07:21:13;;;;;;;41.47;37.87;;;;;;;;;;5016218;28;20462;-88
2021/08/19 07:23:40;;;;;;;40.90;37.13;;;;;;;;;;5015842;28;20425;-87
2021/08/19 07:26:07;;;;;;;42.43;39.07;;;;;;;;;;5015978;28;20455;-88
2021/08/19 07:28:35;;;;;;;40.93;37.60;;;;;;;;;;5015668;28;21014;-86
2021/08/19 07:31:03;;;;;;;41.33;37.80;;;;;;;;;;5016261;28;20769;-88
2021/08/19 07:33:31;;;;;;;40.20;37.00;;;;;;;;;;5015915;28;20453;-88
2021/08/19 07:35:58;;;;;;;40.10;36.60;;;;;;;;;;5015712;28;20435;-91
2021/08/19 07:38:26;;;;;;;39.27;36.07;;;;;;;;;;5015458;28;20547;-86
2021/08/19 07:40:53;;;;;;;42.80;39.20;;;;;;;;;;5015836;28;20474;-94
2021/08/19 07:43:20;;;;;;;41.63;38.03;;;;;;;;;;5015495;28;20460;-93
2021/08/19 07:45:48;;;;;;;41.67;38.37;;;;;;;;;;4998639;28;20408;-93
2021/08/19 07:48:17;;;;;;;40.57;37.27;;;;;;;;;;5014606;28;20501;-94
2021/08/19 07:50:44;;;;;;;42.30;36.30;;;;;;;;;;5015842;28;20450;-95
2021/08/19 07:53:13;;;;;;;39.70;36.60;;;;;;;;;;5015380;28;20465;-93
2021/08/19 07:55:40;;;;;;;39.57;36.10;;;;;;;;;;5015283;28;20494;-93
2021/08/19 07:58:08;;;;;;;39.30;35.70;;;;;;;;;;5015326;28;20430;-94
2021/08/19 08:00:37;;;;;;;40.00;36.37;;;;;;;;;;4998133;28;20461;-92
2021/08/19 08:03:05;;;;;;;40.93;37.50;;;;;;;;;;5015169;28;20420;-92
2021/08/19 08:05:34;;;;;;;40.97;37.43;;;;;;;;;;5014785;28;20436;-92
2021/08/19 08:08:02;;;;;;;39.53;35.93;;;;;;;;;;5015154;28;20878;-93
2021/08/19 08:10:30;;;;;;;41.63;38.00;;;;;;;;;;4998795;28;20455;-92
2021/08/19 08:12:58;;;;;;;40.93;37.40;;;;;;;;;;5014806;28;20469;-91
2021/08/19 08:15:26;;;;;;;41.20;37.60;;;;;;;;;;5014847;28;20913;-91
2021/08/19 08:17:54;;;;;;;43.10;39.30;;;;;;;;;;5014979;28;20859;-92
2021/08/19 08:20:21;;;;;;;40.80;37.17;;;;;;;;;;5015184;28;20430;-92
2021/08/19 08:22:51;;;;;;;41.00;37.57;;;;;;;;;;5014933;28;20405;-92
2021/08/19 08:25:19;;;;;;;41.27;37.87;;;;;;;;;;5014744;28;20431;-93
2021/08/19 08:27:59;;;;;;;41.67;37.93;;;;;;;;;;4998174;28;20546;-90
2021/08/19 08:30:27;;;;;;;38.97;35.43;;;;;;;;;;5014079;28;20449;-83
2021/08/19 08:32:54;;;;;;;36.37;33.50;;;;;;;;;;5014433;28;20417;-83
2021/08/19 08:35:22;;;;;;;36.73;33.83;;;;;;;;;;5014431;28;20420;-83
2021/08/19 08:37:51;;;;;;;33.90;31.27;;;;;;;;;;5014227;28;20427;-83
2021/08/19 08:40:19;;;;;;;31.77;29.47;;;;;;;;;;5014228;28;20435;-83
2021/08/19 08:42:46;;;;;;;30.90;28.80;;;;;;;;;;5014067;28;20411;-83
2021/08/19 08:45:15;;;;;;;31.00;28.80;;;;;;;;;;5014164;28;20762;-83
2021/08/19 08:47:43;;;;;;;30.97;28.80;;;;;;;;;;5013520;28;20445;-83
2021/08/19 08:50:11;;;;;;;31.03;28.93;;;;;;;;;;5013407;28;20501;-82
2021/08/19 08:52:40;;;;;;;32.07;29.77;;;;;;;;;;5014108;28;20446;-81
2021/08/19 08:55:10;;;;;;;31.33;29.13;;;;;;;;;;5013322;28;20429;-83
2021/08/19 08:57:38;;;;;;;31.07;28.97;;;;;;;;;;5013695;28;20918;-81
2021/08/19 09:00:08;;;;;;;33.40;30.97;;;;;;;;;;4999506;28;20428;-81
2021/08/19 09:02:35;;;;;;;34.23;31.57;;;;;;;;;;5017510;28;20586;-81
2021/08/19 09:05:18;;;;;;;34.47;31.77;;;;;;;;;;5017549;28;20453;-85
2021/08/19 09:07:46;;;;;;;34.77;32.03;;;;;;;;;;5018009;28;20494;-83
2021/08/19 09:10:15;;;;;;;34.10;31.30;;;;;;;;;;5017630;28;20792;-81
2021/08/19 09:12:43;;;;;;;36.57;33.47;;;;;;;;;;5017776;28;20434;-82
2021/08/19 09:15:15;;;;;;;33.97;31.47;;;;;;;;;;5018199;28;20434;-82
2021/08/19 09:17:43;;;;;;;32.33;30.03;;;;;;;;;;5017865;28;20408;-83
2021/08/19 09:20:11;;;;;;;33.20;30.50;;;;;;;;;;5017767;28;20437;-82
2021/08/19 09:22:53;;;;;;;35.67;33.07;;;;;;;;;;5017401;28;20500;-82
2021/08/19 09:25:38;;;;;;;33.13;30.93;;;;;;;;;;5017415;28;20415;-83
2021/08/19 09:28:10;;;;;;;34.57;31.93;;;;;;;;;;5017699;28;20449;-83
2021/08/19 09:30:37;;;;;;;33.70;31.37;;;;;;;;;;5017312;28;21003;-93
2021/08/19 09:33:06;;;;;;;33.53;31.00;;;;;;;;;;5017426;28;20437;-81
2021/08/19 09:35:34;;;;;;;32.23;29.77;;;;;;;;;;5017155;28;20797;-84
2021/08/19 09:38:07;;;;;;;33.60;30.93;;;;;;;;;;5017443;28;20434;-83
2021/08/19 09:40:35;;;;;;;34.77;31.97;;;;;;;;;;5017530;28;20452;-86
2021/08/19 09:43:03;;;;;;;33.63;31.13;;;;;;;;;;5017717;28;20429;-86
2021/08/19 09:45:31;;;;;;;33.13;30.53;;;;;;;;;;5018443;28;20451;-82
2021/08/19 09:48:08;;;;;;;33.47;30.70;;;;;;;;;;5017030;28;20448;-83
2021/08/19 09:50:35;;;;;;;33.97;31.00;;;;;;;;;;5014095;28;20453;-83
2021/08/19 09:53:15;;;;;;;33.20;30.57;;;;;;;;;;5017458;28;20437;-81
2021/08/19 09:55:44;;;;;;;33.73;31.03;;;;;;;;;;5016749;28;20934;-81
2021/08/19 09:58:12;;;;;;;35.40;32.50;;;;;;;;;;5016958;28;20429;-81
2021/08/19 10:00:41;;;;;;;36.73;32.80;;;;;;;;;;5016692;28;20416;-79
2021/08/19 10:03:10;;;;;;;33.53;30.93;;;;;;;;;;5016949;28;20411;-80
2021/08/19 10:05:38;;;;;;;35.33;32.60;;;;;;;;;;4999230;28;20421;-80
2021/08/19 10:08:08;;;;;;;37.17;33.97;;;;;;;;;;5016868;28;20465;-79
2021/08/19 10:10:37;;;;;;;37.63;34.40;;;;;;;;;;5015683;28;20526;-81
2021/08/19 10:13:06;;;;;;;38.47;35.33;;;;;;;;;;5016240;28;20417;-80
2021/08/19 10:15:36;;;;;;;37.10;34.10;;;;;;;;;;5016678;28;20450;-80
2021/08/19 10:18:03;;;;;;;38.50;35.30;;;;;;;;;;5016300;28;20891;-80
2021/08/19 10:20:32;;;;;;;39.03;35.80;;;;;;;;;;5016262;28;20449;-81
2021/08/19 10:23:01;;;;;;;37.73;34.63;;;;;;;;;;5016380;28;20446;-80
2021/08/19 10:25:28;;;;;;;39.50;36.20;;;;;;;;;;5016468;28;20453;-80
2021/08/19 10:28:14;;;;;;;38.93;35.60;;;;;;;;;;5014988;28;20794;-80
2021/08/19 10:30:48;;;;;;;40.07;36.30;;;;;;;;;;5016281;28;20459;-80
2021/08/19 10:33:30;;;;;;;41.07;37.40;;;;;;;;;;5016052;28;20415;-80
2021/08/19 10:35:58;;;;;;;40.57;37.27;;;;;;;;;;5015444;28;20842;-80
2021/08/19 10:38:26;;;;;;;42.67;39.00;;;;;;;;;;5016027;28;20886;-80
2021/08/19 10:40:53;;;;;;;42.67;38.90;;;;;;;;;;5015759;28;20950;-81
2021/08/19 10:43:41;;;;;;;42.90;39.00;;;;;;;;;;5016106;28;20410;-80
2021/08/19 10:46:11;;;;;;;43.73;39.83;;;;;;;;;;5011413;28;20469;-80
2021/08/19 10:48:46;;;;;;;45.47;41.53;;;;;;;;;;4998334;28;20445;-80
2021/08/19 10:51:13;;;;;;;46.27;41.80;;;;;;;;;;5015810;28;20441;-80
2021/08/19 10:53:41;;;;;;;48.57;44.10;;;;;;;;;;5015615;28;20455;-84
2021/08/19 10:56:08;;;;;;;48.60;44.13;;;;;;;;;;5016115;28;20549;-84
2021/08/19 10:58:37;;;;;;;46.47;42.03;;;;;;;;;;5015826;28;20413;-83
2021/08/19 11:01:24;;;;;;;46.37;41.87;;;;;;;;;;5015924;28;20452;-82
2021/08/19 11:03:54;;;;;;;47.43;42.83;;;;;;;;;;5015571;28;20925;-83
2021/08/19 11:06:22;;;;;;;46.87;42.47;;;;;;;;;;5015758;28;20475;-83
2021/08/19 11:08:52;;;;;;;45.00;41.00;;;;;;;;;;5015669;28;20427;-83
2021/08/19 11:11:30;;;;;;;47.27;43.00;;;;;;;;;;5015640;28;20467;-86
2021/08/19 11:14:01;;;;;;;45.40;41.03;;;;;;;;;;5015755;28;20449;-84
2021/08/19 11:16:29;;;;;;;47.33;42.90;;;;;;;;;;5015362;28;20935;-83
2021/08/19 11:19:11;;;;;;;47.27;42.97;;;;;;;;;;5015688;28;20435;-88
2021/08/19 11:21:39;;;;;;;46.90;42.80;;;;;;;;;;5015656;28;20904;-86
2021/08/19 11:24:09;;;;;;;50.60;45.53;;;;;;;;;;5014344;28;20478;-86
2021/08/19 11:26:36;;;;;;;42.47;38.53;;;;;;;;;;5029500;28;20427;-82
2021/08/19 11:29:04;;;;;;;48.67;43.87;;;;;;;;;;5017406;28;20805;-84
2021/08/19 11:31:31;;;;;;;44.43;40.03;;;;;;;;;;5034814;28;20477;-82
2021/08/19 11:34:01;;;;;;;47.70;43.20;;;;;;;;;;5034958;28;20444;-83
2021/08/19 11:36:29;;;;;;;46.27;41.63;;;;;;;;;;5034767;28;20444;-83
2021/08/19 11:38:57;;;;;;;43.37;39.70;;;;;;;;;;5017362;28;20424;-83
2021/08/19 11:41:24;;;;;;;48.00;43.67;;;;;;;;;;5034915;28;20472;-83
2021/08/19 11:43:58;;;;;;;46.50;42.30;;;;;;;;;;5034648;28;20465;-83
2021/08/19 11:46:27;;;;;;;48.83;44.53;;;;;;;;;;5034573;28;20416;-84
2021/08/19 11:48:55;;;;;;;45.67;41.47;;;;;;;;;;5034555;28;20984;-83
2021/08/19 11:51:38;;;;;;;46.00;41.80;;;;;;;;;;5034397;28;21002;-83
2021/08/19 11:54:07;;;;;;;45.80;41.53;;;;;;;;;;5031430;28;20409;-83
2021/08/19 11:56:36;;;;;;;47.23;42.73;;;;;;;;;;5017105;28;20424;-83
2021/08/19 11:59:07;;;;;;;47.97;43.37;;;;;;;;;;5034606;28;20420;-84
2021/08/19 12:01:35;;;;;;;46.87;42.37;;;;;;;;;;5034489;28;20416;-84
2021/08/19 12:04:02;;;;;;;50.57;45.53;;;;;;;;;;5034315;28;20461;-83
2021/08/19 12:06:32;;;;;;;48.13;43.40;;;;;;;;;;5034214;28;20488;-84
2021/08/19 12:09:01;;;;;;;46.13;42.20;;;;;;;;;;5034399;28;20420;-84
2021/08/19 12:11:30;;;;;;;46.23;42.10;;;;;;;;;;5016836;28;20986;-83
2021/08/19 12:13:59;;;;;;;44.90;40.83;;;;;;;;;;5034359;28;20423;-83
2021/08/19 12:16:27;;;;;;;43.97;40.00;;;;;;;;;;5034297;28;20762;-83
2021/08/19 12:19:08;;;;;;;40.77;37.10;;;;;;;;;;5034490;28;20437;-83
2021/08/19 12:21:36;;;;;;;41.80;38.10;;;;;;;;;;5034246;28;20456;-84
2021/08/19 12:24:10;;;;;;;44.23;39.97;;;;;;;;;;5016620;28;20854;-83
2021/08/19 12:26:39;;;;;;;42.33;38.70;;;;;;;;;;5034227;28;20444;-83
2021/08/19 12:29:07;;;;;;;44.10;40.10;;;;;;;;;;5034388;28;20950;-84
2021/08/19 12:31:48;;;;;;;43.33;39.13;;;;;;;;;;5033724;28;20466;-83
2021/08/19 12:34:16;;;;;;;41.87;38.27;;;;;;;;;;5033899;28;20423;-84
2021/08/19 12:36:43;;;;;;;41.33;37.90;;;;;;;;;;5016191;28;20441;-84
2021/08/19 12:39:15;;;;;;;43.17;39.27;;;;;;;;;;5033935;28;20954;-83
2021/08/19 12:41:44;;;;;;;41.97;38.33;;;;;;;;;;5034050;28;20489;-83
2021/08/19 12:44:12;;;;;;;40.33;36.77;;;;;;;;;;5016042;28;20968;-83
2021/08/19 12:46:40;;;;;;;42.23;38.60;;;;;;;;;;5033799;28;20448;-83
2021/08/19 12:49:26;;;;;;;41.07;37.57;;;;;;;;;;5033998;28;20421;-84
2021/08/19 12:52:12;;;;;;;41.27;37.70;;;;;;;;;;5033721;28;20424;-83
2021/08/19 12:54:40;;;;;;;36.37;33.33;;;;;;;;;;5033606;28;20417;-83
2021/08/19 12:57:10;;;;;;;38.67;35.67;;;;;;;;;;5033512;28;20438;-83
2021/08/19 12:59:39;;;;;;;36.60;33.93;;;;;;;;;;5031058;28;20430;-83
2021/08/19 13:02:07;;;;;;;38.10;35.10;;;;;;;;;;5033872;28;20818;-83
2021/08/19 13:04:34;;;;;;;37.20;34.10;;;;;;;;;;5033809;28;20422;-83
2021/08/19 13:07:12;;;;;;;37.80;34.77;;;;;;;;;;5032339;28;20461;-86
2021/08/19 13:09:40;;;;;;;36.30;33.20;;;;;;;;;;5033442;28;20500;-85
2021/08/19 13:12:08;;;;;;;36.83;34.03;;;;;;;;;;5033800;28;20441;-84
2021/08/19 13:14:39;;;;;;;35.57;32.97;;;;;;;;;;5033701;28;20495;-84
2021/08/19 13:17:07;;;;;;;33.80;31.17;;;;;;;;;;5034103;28;20421;-84
2021/08/19 13:19:35;;;;;;;32.93;30.20;;;;;;;;;;5033429;28;20529;-83
2021/08/19 13:22:03;;;;;;;33.40;31.00;;;;;;;;;;5033958;28;20806;-83
2021/08/19 13:24:31;;;;;;;36.17;33.27;;;;;;;;;;5015791;28;20450;-85
2021/08/19 13:26:58;;;;;;;36.20;33.23;;;;;;;;;;5033646;28;20444;-84
2021/08/19 13:29:26;;;;;;;34.73;32.17;;;;;;;;;;5033472;28;20439;-85
2021/08/19 13:31:56;;;;;;;34.07;31.50;;;;;;;;;;5033571;28;20507;-84
2021/08/19 13:34:24;;;;;;;29.17;27.07;;;;;;;;;;5032996;28;20854;-82
2021/08/19 13:36:54;;;;;;;29.47;27.37;;;;;;;;;;5033059;28;20420;-83
2021/08/19 13:39:22;;;;;;;29.33;27.33;;;;;;;;;;5033303;28;20801;-83
2021/08/19 13:41:50;;;;;;;30.63;28.33;;;;;;;;;;5033208;28;20515;-86
2021/08/19 13:44:18;;;;;;;30.90;28.67;;;;;;;;;;5033091;28;20911;-82
2021/08/19 13:46:45;;;;;;;30.20;28.10;;;;;;;;;;5033665;28;20495;-83
2021/08/19 13:49:14;;;;;;;32.63;29.87;;;;;;;;;;5018889;28;20445;-83
2021/08/19 13:51:41;;;;;;;33.63;31.27;;;;;;;;;;5018998;28;20519;-83
2021/08/19 13:54:09;;;;;;;32.70;30.30;;;;;;;;;;5019082;28;20514;-84
2021/08/19 13:56:37;;;;;;;33.33;30.83;;;;;;;;;;5037635;28;20415;-84
2021/08/19 13:59:05;;;;;;;34.53;32.03;;;;;;;;;;5038023;28;20812;-85
2021/08/19 14:01:33;;;;;;;35.30;32.30;;;;;;;;;;5037110;28;20831;-85
2021/08/19 14:04:01;;;;;;;37.90;35.00;;;;;;;;;;5036478;28;20768;-89
2021/08/19 14:06:31;;;;;;;38.43;35.27;;;;;;;;;;5036815;28;20458;-87
2021/08/19 14:09:02;;;;;;;38.53;35.43;;;;;;;;;;5036764;28;20445;-89
2021/08/19 14:11:30;;;;;;;40.87;36.57;;;;;;;;;;5036693;28;20538;-89
2021/08/19 14:13:58;;;;;;;37.63;34.73;;;;;;;;;;5036900;28;20443;-90
2021/08/19 14:16:26;;;;;;;38.20;34.90;;;;;;;;;;5036925;28;20444;-91
2021/08/19 14:18:54;;;;;;;38.63;35.60;;;;;;;;;;5036995;28;20418;-93
2021/08/19 14:21:23;;;;;;;39.37;36.30;;;;;;;;;;5036896;28;20514;-93
2021/08/19 14:23:54;;;;;;;42.33;38.47;;;;;;;;;;5036132;28;20909;-81
2021/08/19 14:26:22;;;;;;;42.90;39.27;;;;;;;;;;5035929;28;20498;-81